Time;durP1;ratioP1;P1;durP2;ratioP2;P2;SDS_P1;SDS_P2;PMS_P1;PMS_P2;Temp;Humidity;BMP_temperature;BMP_pressure;BME280_temperature;BME280_humidity;BME280_pressure;Samples;Min_cycle;Max_cycle;Signal;HPM_P1;HPM_P2
2023/09/19 00:00:58;;;;;;;1.17;0.65;;;;;;;18.80;66.54;96327.47;6276539;22;20340;-72
2023/09/19 00:03:28;;;;;;;0.57;0.57;;;;;;;18.81;66.47;96331.75;6275886;22;20016;-72
2023/09/19 00:05:56;;;;;;;2.40;0.80;;;;;;;18.83;66.85;96327.00;6276893;22;20023;-72
2023/09/19 00:08:24;;;;;;;1.08;0.65;;;;;;;18.86;66.01;96331.00;6275745;22;20020;-72
2023/09/19 00:10:53;;;;;;;0.73;0.40;;;;;;;18.89;66.06;96343.72;6276154;22;20408;-71
2023/09/19 00:13:21;;;;;;;3.05;1.08;;;;;;;18.89;65.73;96343.72;6275828;22;20023;-72
2023/09/19 00:15:49;;;;;;;2.03;0.52;;;;;;;18.89;65.51;96347.19;6276399;22;20020;-72
2023/09/19 00:18:20;;;;;;;1.95;0.68;;;;;;;18.89;66.78;96346.38;6275272;22;20491;-72
2023/09/19 00:20:51;;;;;;;0.82;0.40;;;;;;;18.86;66.21;96334.44;6276415;22;20104;-73
2023/09/19 00:23:19;;;;;;;0.95;0.40;;;;;;;18.89;65.67;96326.06;6275639;22;20073;-73
2023/09/19 00:25:46;;;;;;;1.25;0.52;;;;;;;18.91;66.13;96323.97;6275936;22;20054;-73
2023/09/19 00:28:14;;;;;;;1.95;0.65;;;;;;;18.94;65.30;96322.69;6276373;22;20027;-73
2023/09/19 00:30:43;;;;;;;0.60;0.50;;;;;;;18.98;65.05;96320.34;6275339;22;20024;-73
2023/09/19 00:33:15;;;;;;;1.65;0.52;;;;;;;18.98;64.76;96317.69;6275619;22;20023;-72
2023/09/19 00:35:49;;;;;;;;;;;;;;;18.99;64.95;96319.31;6277016;22;20024;-73
2023/09/19 00:38:18;;;;;;;1.17;0.57;;;;;;;18.96;64.98;96323.25;6276122;22;19915;-72
2023/09/19 00:40:46;;;;;;;0.93;0.73;;;;;;;18.96;64.88;96319.78;6275597;22;20321;-73
2023/09/19 00:43:13;;;;;;;0.60;0.40;;;;;;;18.96;65.13;96320.59;6275417;22;20015;-73
2023/09/19 00:45:44;;;;;;;2.08;0.50;;;;;;;18.98;65.59;96320.34;6275826;22;20023;-72
2023/09/19 00:48:12;;;;;;;3.17;0.68;;;;;;;18.94;64.91;96323.47;6276005;22;20093;-73
2023/09/19 00:50:43;;;;;;;0.80;0.45;;;;;;;18.94;64.87;96326.13;6275633;22;20026;-72
2023/09/19 00:53:15;;;;;;;0.70;0.30;;;;;;;18.97;64.66;96324.03;6275695;22;20065;-73
2023/09/19 00:55:43;;;;;;;1.07;0.57;;;;;;;18.99;65.08;96314.03;6275394;22;20031;-73
2023/09/19 00:58:11;;;;;;;0.65;0.40;;;;;;;18.99;64.91;96321.97;6275581;22;20028;-73
2023/09/19 01:00:44;;;;;;;3.15;0.75;;;;;;;18.98;64.77;96321.16;6275455;22;20081;-73
2023/09/19 01:03:13;;;;;;;3.42;0.80;;;;;;;18.94;64.78;96323.47;6277078;22;20024;-72
2023/09/19 01:05:42;;;;;;;0.43;0.43;;;;;;;18.91;64.99;96329.25;6275507;22;20024;-73
2023/09/19 01:08:11;;;;;;;2.55;0.50;;;;;;;18.85;65.19;96330.22;6275634;22;20015;-73
2023/09/19 01:10:48;;;;;;;1.08;0.70;;;;;;;18.79;65.54;96340.94;6274889;22;20519;-73
2023/09/19 01:13:24;;;;;;;0.73;0.40;;;;;;;18.72;65.95;96341.06;6275157;22;20019;-73
2023/09/19 01:16:00;;;;;;;0.90;0.68;;;;;;;18.69;66.03;96336.25;6275535;22;20061;-73
2023/09/19 01:18:37;;;;;;;1.48;0.50;;;;;;;18.66;66.51;96344.66;6275041;22;20074;-73
2023/09/19 01:21:12;;;;;;;1.75;0.40;;;;;;;18.63;67.06;96345.13;6275371;22;20050;-72
2023/09/19 01:23:56;;;;;;;1.10;0.40;;;;;;;18.63;67.14;96347.78;6275114;22;20024;-73
2023/09/19 01:26:46;;;;;;;0.95;0.45;;;;;;;18.63;67.38;96347.78;6275462;22;20077;-73
2023/09/19 01:29:32;;;;;;;0.45;0.45;;;;;;;18.67;66.91;96343.63;6275213;22;20024;-73
2023/09/19 01:32:05;;;;;;;1.63;0.60;;;;;;;18.67;67.13;96344.44;6275482;22;20031;-73
2023/09/19 01:34:57;;;;;;;0.52;0.40;;;;;;;18.71;66.81;96345.53;6275038;22;20020;-73
2023/09/19 01:37:25;;;;;;;0.45;0.38;;;;;;;18.74;66.56;96344.28;6268330;22;20396;-73
2023/09/19 01:39:56;;;;;;;1.85;0.25;;;;;;;18.77;66.48;96351.72;6275371;22;20019;-73
2023/09/19 01:42:32;;;;;;;1.13;0.50;;;;;;;18.78;66.59;96349.91;6275234;22;20095;-73
2023/09/19 01:45:07;;;;;;;1.80;0.30;;;;;;;18.79;66.53;96352.31;6275100;22;20085;-73
2023/09/19 01:47:43;;;;;;;2.25;0.60;;;;;;;18.77;66.70;96370.22;6275262;22;20024;-72
2023/09/19 01:50:21;;;;;;;0.47;0.35;;;;;;;18.74;66.55;96363.56;6275586;22;20027;-72
2023/09/19 01:52:57;;;;;;;1.27;0.50;;;;;;;18.73;66.68;96359.31;6274969;22;20020;-73
2023/09/19 01:55:27;;;;;;;0.40;0.40;;;;;;;18.76;66.35;96367.81;6275496;22;20407;-73
2023/09/19 01:58:04;;;;;;;1.77;0.45;;;;;;;18.76;66.22;96365.97;6274774;22;20015;-73
2023/09/19 02:00:35;;;;;;;0.82;0.40;;;;;;;18.78;66.41;96381.59;6274622;22;20019;-73
2023/09/19 02:03:04;;;;;;;0.70;0.30;;;;;;;18.75;66.74;96372.28;6274680;22;20020;-73
2023/09/19 02:05:33;;;;;;;0.68;0.30;;;;;;;18.71;66.29;96371.97;6274584;22;20479;-73
2023/09/19 02:08:00;;;;;;;0.70;0.43;;;;;;;18.71;66.40;96371.16;6275391;22;20099;-73
2023/09/19 02:10:28;;;;;;;0.88;0.45;;;;;;;18.68;66.01;96375.09;6275117;22;20020;-73
2023/09/19 02:12:56;;;;;;;1.55;0.38;;;;;;;18.65;66.12;96377.41;6274662;22;20460;-73
2023/09/19 02:15:24;;;;;;;0.75;0.40;;;;;;;18.65;66.26;96378.22;6275037;22;20404;-73
2023/09/19 02:17:53;;;;;;;0.45;0.30;;;;;;;18.64;65.80;96375.81;6274269;22;20519;-74
2023/09/19 02:20:22;;;;;;;0.20;0.20;;;;;;;18.66;65.81;96379.00;6275282;22;20098;-73
2023/09/19 02:22:49;;;;;;;1.00;0.40;;;;;;;18.68;65.42;96390.16;6274901;22;20091;-75
2023/09/19 02:25:18;;;;;;;0.60;0.20;;;;;;;18.69;65.40;96383.81;6275039;22;20028;-74
2023/09/19 02:27:46;;;;;;;0.22;0.22;;;;;;;18.66;65.61;96390.38;6274532;22;20469;-73
2023/09/19 02:30:15;;;;;;;0.25;0.25;;;;;;;18.67;65.14;96391.16;6274565;22;20024;-72
2023/09/19 02:32:43;;;;;;;0.20;0.20;;;;;;;18.67;65.23;96391.16;6274540;22;20477;-73
2023/09/19 02:35:11;;;;;;;0.35;0.20;;;;;;;18.68;65.20;96401.50;6275512;22;20073;-73
2023/09/19 02:37:40;;;;;;;1.02;0.43;;;;;;;18.66;65.21;96400.16;6274975;22;20030;-73
2023/09/19 02:40:18;;;;;;;0.50;0.30;;;;;;;18.65;65.63;96395.88;6274877;22;20034;-73
2023/09/19 02:42:48;;;;;;;0.43;0.30;;;;;;;18.64;65.43;96395.09;6274880;22;20020;-72
2023/09/19 02:45:18;;;;;;;0.52;0.20;;;;;;;18.64;65.34;96405.66;6274964;22;20057;-73
2023/09/19 02:47:46;;;;;;;0.40;0.20;;;;;;;18.66;65.30;96402.78;6297754;22;20008;-73
2023/09/19 02:50:15;;;;;;;0.60;0.30;;;;;;;18.66;65.18;96405.44;6298699;22;20015;-73
2023/09/19 02:52:47;;;;;;;0.57;0.30;;;;;;;18.62;65.31;96412.22;6275951;22;20054;-72
2023/09/19 02:55:17;;;;;;;0.75;0.50;;;;;;;18.59;65.17;96408.22;6275027;22;20099;-73
2023/09/19 02:57:47;;;;;;;1.00;0.35;;;;;;;18.60;65.49;96411.66;6275314;22;20020;-73
2023/09/19 03:00:15;;;;;;;0.30;0.20;;;;;;;18.62;65.55;96414.88;6275245;22;20058;-73
2023/09/19 03:02:44;;;;;;;0.55;0.28;;;;;;;18.63;65.61;96419.09;6283947;22;20023;-75
2023/09/19 03:05:12;;;;;;;0.28;0.28;;;;;;;18.62;65.81;96415.66;6288863;22;20024;-73
2023/09/19 03:07:39;;;;;;;0.70;0.30;;;;;;;18.64;65.77;96415.44;6288418;22;20024;-73
2023/09/19 03:10:10;;;;;;;1.40;1.25;;;;;;;18.65;66.34;96414.38;6284660;22;20119;-73
2023/09/19 03:12:37;;;;;;;1.30;0.57;;;;;;;18.64;66.19;96415.44;6276794;22;20070;-73
2023/09/19 03:15:08;;;;;;;0.88;0.60;;;;;;;18.63;66.32;96422.56;6276735;22;20024;-73
2023/09/19 03:17:36;;;;;;;0.50;0.40;;;;;;;18.62;66.28;96420.94;6277020;22;20020;-73
2023/09/19 03:20:07;;;;;;;0.73;0.35;;;;;;;18.61;66.31;96424.66;6276323;22;20016;-73
2023/09/19 03:22:35;;;;;;;2.03;0.65;;;;;;;18.60;66.70;96433.59;6276803;22;20453;-73
2023/09/19 03:25:03;;;;;;;1.40;0.35;;;;;;;18.58;66.71;96433.03;6276853;22;20425;-74
2023/09/19 03:27:32;;;;;;;0.28;0.25;;;;;;;18.57;66.76;96433.28;6276820;22;20051;-73
2023/09/19 03:30:00;;;;;;;0.75;0.50;;;;;;;18.55;66.82;96436.16;6286637;22;20030;-74
2023/09/19 03:32:28;;;;;;;2.45;0.60;;;;;;;18.52;66.93;96437.44;6301901;22;20024;-74
2023/09/19 03:34:55;;;;;;;1.05;0.70;;;;;;;18.53;66.89;96430.31;6302010;22;20020;-74
2023/09/19 03:37:26;;;;;;;1.02;0.50;;;;;;;18.53;66.72;96436.38;6304543;22;20020;-74
2023/09/19 03:39:53;;;;;;;0.32;0.30;;;;;;;18.52;66.89;96442.72;6304064;22;20012;-74
2023/09/19 03:42:25;;;;;;;1.02;0.50;;;;;;;18.52;66.99;96436.63;6304471;22;20035;-74
2023/09/19 03:44:55;;;;;;;2.22;0.32;;;;;;;18.50;67.13;96444.78;6304107;22;20085;-74
2023/09/19 03:47:22;;;;;;;0.65;0.47;;;;;;;18.53;66.92;96440.88;6304601;22;20019;-75
2023/09/19 03:49:50;;;;;;;1.65;0.45;;;;;;;18.56;66.84;96439.59;6304350;22;20521;-74
2023/09/19 03:52:18;;;;;;;0.98;0.52;;;;;;;18.57;66.75;96433.28;6304311;22;20047;-75
2023/09/19 03:54:45;;;;;;;1.02;0.43;;;;;;;18.57;66.69;96439.34;6304009;22;20027;-75
2023/09/19 03:57:15;;;;;;;1.40;0.50;;;;;;;18.55;66.71;96436.16;6304606;22;20030;-74
2023/09/19 03:59:43;;;;;;;2.15;1.15;;;;;;;18.54;66.79;96437.16;6304545;22;20011;-74
2023/09/19 04:02:21;;;;;;;0.70;0.70;;;;;;;18.55;66.52;96430.06;6304421;22;20023;-75
2023/09/19 04:04:50;;;;;;;0.63;0.43;;;;;;;18.53;66.60;96433.72;6304292;22;20039;-74
2023/09/19 04:07:18;;;;;;;1.10;0.43;;;;;;;18.56;66.83;96431.66;6303909;22;20075;-75
2023/09/19 04:09:46;;;;;;;1.52;0.55;;;;;;;18.53;66.89;96428.44;6304028;22;20051;-74
2023/09/19 04:12:16;;;;;;;1.08;0.60;;;;;;;18.52;67.06;96431.34;6303854;22;20034;-75
2023/09/19 04:14:44;;;;;;;0.50;0.50;;;;;;;18.50;67.17;96425.50;6304187;22;20011;-75
2023/09/19 04:17:13;;;;;;;3.22;0.77;;;;;;;18.48;67.28;96433.66;6304160;22;20030;-74
2023/09/19 04:19:41;;;;;;;2.85;0.57;;;;;;;18.49;67.32;96432.59;6299810;22;20020;-74
2023/09/19 04:22:11;;;;;;;0.90;0.50;;;;;;;18.50;67.33;96439.50;6303493;22;20023;-74
2023/09/19 04:24:38;;;;;;;1.58;1.08;;;;;;;18.52;67.32;96437.44;6299503;22;20477;-74
2023/09/19 04:27:07;;;;;;;2.58;1.40;;;;;;;18.52;67.26;96445.34;6296046;22;20042;-74
2023/09/19 04:29:34;;;;;;;1.20;0.60;;;;;;;18.55;67.19;96440.63;6302858;22;20019;-74
2023/09/19 04:32:04;;;;;;;1.10;0.60;;;;;;;18.55;67.21;96444.06;6289723;22;20030;-75
2023/09/19 04:34:34;;;;;;;1.85;0.70;;;;;;;18.56;67.01;96445.66;6301641;22;20015;-74
2023/09/19 04:37:03;;;;;;;0.40;0.40;;;;;;;18.56;66.96;96444.88;6302118;22;20034;-76
2023/09/19 04:39:31;;;;;;;0.70;0.45;;;;;;;18.57;67.07;96449.13;6304379;22;20061;-75
2023/09/19 04:41:59;;;;;;;1.35;0.52;;;;;;;18.57;67.64;96444.63;6303756;22;20007;-75
2023/09/19 04:44:27;;;;;;;0.60;0.45;;;;;;;18.59;67.23;96447.84;6302570;22;20026;-75
2023/09/19 04:46:55;;;;;;;1.70;0.60;;;;;;;18.59;66.84;96447.06;6299797;22;20023;-75
2023/09/19 04:49:23;;;;;;;1.65;0.60;;;;;;;18.57;66.91;96455.22;6296803;22;20025;-74
2023/09/19 04:51:53;;;;;;;1.35;0.63;;;;;;;18.58;67.07;96456.00;6296074;22;20039;-72
2023/09/19 04:54:22;;;;;;;0.70;0.70;;;;;;;18.55;67.16;96456.47;6300163;22;20023;-73
2023/09/19 04:56:49;;;;;;;2.60;0.70;;;;;;;18.55;67.23;96461.78;6301047;22;20318;-73
2023/09/19 04:59:17;;;;;;;0.55;0.55;;;;;;;18.52;67.12;96463.03;6297299;22;20531;-73
2023/09/19 05:01:45;;;;;;;1.05;0.60;;;;;;;18.50;67.38;96468.56;6295138;22;20046;-73
2023/09/19 05:04:13;;;;;;;2.08;0.90;;;;;;;18.50;67.67;96475.69;6298317;22;20023;-73
2023/09/19 05:06:40;;;;;;;1.92;0.50;;;;;;;18.49;67.67;96474.06;6297490;22;20028;-73
2023/09/19 05:09:09;;;;;;;0.77;0.70;;;;;;;18.48;67.73;96473.28;6299443;22;20028;-73
2023/09/19 05:11:38;;;;;;;0.45;0.45;;;;;;;18.50;67.58;96476.47;6297717;22;20085;-73
2023/09/19 05:14:06;;;;;;;0.73;0.70;;;;;;;18.48;67.67;96481.19;6298289;22;20023;-73
2023/09/19 05:16:34;;;;;;;0.55;0.35;;;;;;;18.47;67.85;96487.50;6297934;22;20024;-73
2023/09/19 05:19:02;;;;;;;2.50;1.10;;;;;;;18.45;67.70;96488.78;6297224;22;20087;-73
2023/09/19 05:21:30;;;;;;;1.75;0.77;;;;;;;18.41;67.95;96488.47;6300780;22;20046;-73
2023/09/19 05:23:57;;;;;;;1.48;0.80;;;;;;;18.39;68.19;96494.97;6300450;22;20024;-73
2023/09/19 05:26:26;;;;;;;1.10;0.73;;;;;;;18.35;68.30;96497.31;6297143;22;20015;-73
2023/09/19 05:28:54;;;;;;;2.08;0.65;;;;;;;18.33;68.58;96502.81;6295152;22;20024;-74
2023/09/19 05:31:23;;;;;;;2.92;0.77;;;;;;;18.31;68.95;96499.59;6289144;22;20020;-74
2023/09/19 05:33:51;;;;;;;2.55;0.68;;;;;;;18.30;68.88;96497.19;6280237;22;20028;-75
2023/09/19 05:36:18;;;;;;;2.35;0.80;;;;;;;18.29;69.11;96503.50;6291681;22;20024;-74
2023/09/19 05:38:49;;;;;;;1.25;0.70;;;;;;;18.25;69.39;96505.00;6283393;22;20357;-74
2023/09/19 05:41:17;;;;;;;3.70;1.20;;;;;;;18.21;69.54;96499.38;6285432;22;20043;-73
2023/09/19 05:43:46;;;;;;;1.17;0.82;;;;;;;18.19;69.75;96496.19;6299316;22;20023;-74
2023/09/19 05:46:16;;;;;;;1.20;0.95;;;;;;;18.18;69.83;96506.97;6299662;22;20026;-79
2023/09/19 05:48:53;;;;;;;1.52;0.80;;;;;;;18.16;70.03;96506.41;6287262;22;20039;-80
2023/09/19 05:51:28;;;;;;;2.15;1.20;;;;;;;18.17;69.90;96513.28;6284583;22;20070;-80
2023/09/19 05:53:58;;;;;;;1.23;0.80;;;;;;;18.17;70.00;96508.00;6284130;22;20020;-80
2023/09/19 05:56:28;;;;;;;3.35;1.05;;;;;;;18.18;70.37;96514.91;6283146;22;20042;-80
2023/09/19 05:59:03;;;;;;;2.70;0.80;;;;;;;18.18;70.40;96514.91;6283303;22;20023;-80
2023/09/19 06:01:34;;;;;;;0.90;0.80;;;;;;;18.19;70.14;96514.69;6284621;22;20035;-80
2023/09/19 06:04:06;;;;;;;1.77;0.65;;;;;;;18.22;70.13;96521.31;6284317;22;20019;-80
2023/09/19 06:06:38;;;;;;;0.47;0.40;;;;;;;18.26;70.08;96517.19;6286270;22;20091;-79
2023/09/19 06:09:08;;;;;;;1.85;0.63;;;;;;;18.28;70.03;96525.69;6287207;22;20348;-80
2023/09/19 06:11:39;;;;;;;4.57;0.90;;;;;;;18.28;70.67;96526.47;6288530;22;20018;-80
2023/09/19 06:14:12;;;;;;;3.30;1.00;;;;;;;18.29;70.93;96532.56;6262522;22;20023;-80
2023/09/19 06:16:47;;;;;;;2.50;0.80;;;;;;;18.29;70.43;96533.34;6290858;22;20019;-79
2023/09/19 06:19:22;;;;;;;;;;;;;;;18.31;70.46;96543.69;6286734;22;20023;-79
2023/09/19 06:21:59;;;;;;;1.85;0.90;;;;;;;18.32;70.49;96534.72;6290884;22;19915;-80
2023/09/19 06:24:32;;;;;;;2.08;1.27;;;;;;;18.31;70.88;96541.84;6288998;22;20024;-79
2023/09/19 06:27:04;;;;;;;4.05;1.02;;;;;;;18.28;71.00;96544.97;6291236;22;20353;-79
2023/09/19 06:36:25;;;;;;;1.43;1.10;;;;;;;18.08;71.85;96566.44;6291836;22;20027;-81
2023/09/19 06:39:27;;;;;;;1.30;1.00;;;;;;;18.07;72.41;96562.19;6265220;22;20364;-80
2023/09/19 06:49:03;;;;;;;2.30;1.00;;;;;;;18.01;73.03;96560.47;6158071;23;20035;-81
2023/09/19 06:55:27;;;;;;;0.95;0.68;;;;;;;18.04;72.92;96586.41;6300921;22;20027;-81
2023/09/19 06:58:32;;;;;;;1.63;1.00;;;;;;;18.06;72.69;96584.34;6267850;22;20099;-80
2023/09/19 07:01:07;;;;;;;1.80;0.98;;;;;;;18.06;72.87;96587.00;6291831;22;20031;-80
2023/09/19 07:11:07;;;;;;;0.85;0.43;;;;;;;17.91;70.08;96623.59;6290094;22;20020;-81
2023/09/19 07:14:11;;;;;;;1.38;0.88;;;;;;;17.71;69.83;96635.22;6293573;22;20039;-81
2023/09/19 07:29:10;;;;;;;1.42;1.05;;;;;;;17.48;70.35;96653.59;6200781;23;20100;-79
2023/09/19 07:40:10;;;;;;;1.73;1.17;;;;;;;17.49;71.25;96671.03;6168352;23;20056;-80
2023/09/19 07:51:03;;;;;;;1.15;0.90;;;;;;;17.59;69.36;96655.47;6243732;22;20081;-79
2023/09/19 07:53:34;;;;;;;0.73;0.70;;;;;;;17.57;68.93;96649.63;6279086;22;20024;-79
2023/09/19 08:03:54;;;;;;;1.42;0.98;;;;;;;17.67;70.81;96663.06;6183475;23;20032;-78
2023/09/19 08:06:23;;;;;;;1.52;1.40;;;;;;;17.71;70.26;96664.25;6183783;23;20124;-78
2023/09/19 08:08:53;;;;;;;2.67;1.30;;;;;;;17.73;70.65;96665.84;6184397;23;20548;-78
2023/09/19 08:11:24;;;;;;;1.70;1.20;;;;;;;17.79;70.51;96670.22;6183189;23;20028;-79
2023/09/19 08:13:52;;;;;;;2.88;1.27;;;;;;;17.92;70.10;96673.47;6182676;23;20449;-78
2023/09/19 08:16:22;;;;;;;1.85;1.27;;;;;;;18.11;69.12;96676.84;6182698;23;20020;-78
2023/09/19 08:18:52;;;;;;;2.78;1.33;;;;;;;18.37;68.76;96671.38;6183574;23;20024;-78
2023/09/19 08:21:20;;;;;;;3.03;1.30;;;;;;;18.56;67.63;96685.25;6191838;23;20464;-78
2023/09/19 08:23:49;;;;;;;2.17;1.10;;;;;;;18.79;67.36;96685.28;6210353;23;20013;-78
2023/09/19 08:26:17;;;;;;;2.78;1.25;;;;;;;18.97;66.13;96680.88;6199957;23;20068;-78
2023/09/19 08:28:45;;;;;;;1.63;1.10;;;;;;;19.04;66.02;96690.28;6182773;23;20052;-78
2023/09/19 08:31:13;;;;;;;4.57;1.35;;;;;;;19.12;65.39;96689.91;6182776;23;20021;-78
2023/09/19 08:33:41;;;;;;;3.88;1.48;;;;;;;19.28;64.78;96693.66;6182514;23;20036;-78
2023/09/19 08:36:09;;;;;;;6.00;3.17;;;;;;;19.33;63.99;96691.13;6271120;22;20365;-78
2023/09/19 08:38:37;;;;;;;3.95;2.30;;;;;;;19.33;64.92;96693.78;6299666;22;20020;-77
2023/09/19 08:41:09;;;;;;;3.95;1.83;;;;;;;19.46;64.72;96694.53;6304421;22;20027;-79
2023/09/19 08:43:37;;;;;;;3.22;1.50;;;;;;;19.67;63.93;96695.72;6282732;22;20326;-79
2023/09/19 08:46:11;;;;;;;4.50;1.98;;;;;;;20.15;62.97;96700.53;6278088;22;20051;-78
2023/09/19 08:48:45;;;;;;;3.67;2.90;;;;;;;20.57;61.14;96700.19;6278189;22;20019;-78
2023/09/19 08:51:22;;;;;;;2.20;1.90;;;;;;;20.71;60.63;96699.84;6278262;22;20031;-79
2023/09/19 08:53:55;;;;;;;1.00;0.90;;;;;;;20.83;60.68;96703.16;6278414;22;20027;-78
2023/09/19 08:56:27;;;;;;;3.45;1.38;;;;;;;21.23;59.27;96702.13;6281979;22;20030;-79
2023/09/19 08:58:58;;;;;;;6.93;1.80;;;;;;;21.80;57.65;96700.91;6281829;22;20437;-82
2023/09/19 09:01:28;;;;;;;3.85;1.80;;;;;;;21.85;57.54;96697.50;6280958;22;20046;-78
2023/09/19 09:03:57;;;;;;;2.70;1.45;;;;;;;21.72;57.22;96698.69;6281023;22;20051;-79
2023/09/19 09:06:26;;;;;;;1.95;1.55;;;;;;;21.58;57.61;96696.44;6281952;22;20043;-79
2023/09/19 09:08:54;;;;;;;2.70;1.52;;;;;;;21.43;57.40;96698.09;6280704;22;20081;-79
2023/09/19 09:11:24;;;;;;;4.50;2.72;;;;;;;21.26;58.62;96696.31;6280942;22;20024;-79
2023/09/19 09:13:53;;;;;;;3.22;1.60;;;;;;;21.22;58.29;96691.75;6280144;22;20020;-79
2023/09/19 09:16:25;;;;;;;3.25;2.67;;;;;;;21.13;59.06;96702.78;6279793;22;20024;-79
2023/09/19 09:18:54;;;;;;;;;;;;;;;21.09;59.63;96701.66;6280383;22;20031;-79
2023/09/19 09:21:22;;;;;;;4.63;3.30;;;;;;;21.02;59.82;96706.34;6280907;22;19954;-78
2023/09/19 09:23:51;;;;;;;3.70;2.83;;;;;;;20.93;59.80;96713.13;6279672;22;20495;-78
2023/09/19 09:26:43;;;;;;;5.65;2.72;;;;;;;20.80;59.85;96713.47;6279648;22;20034;-79
2023/09/19 09:29:13;;;;;;;3.45;2.80;;;;;;;20.67;60.38;96717.28;6285272;22;20020;-79
2023/09/19 09:31:48;;;;;;;3.58;2.40;;;;;;;20.57;60.36;96715.25;6284727;22;20572;-79
2023/09/19 09:34:16;;;;;;;10.05;5.05;;;;;;;20.48;60.09;96714.03;6278968;22;20016;-79
2023/09/19 09:36:49;;;;;;;13.13;5.97;;;;;;;20.37;59.67;96718.38;6285246;22;20047;-79
2023/09/19 09:39:32;;;;;;;5.28;3.47;;;;;;;20.28;60.44;96722.47;6283956;22;20015;-78
2023/09/19 09:41:59;;;;;;;4.53;1.95;;;;;;;20.25;60.22;96717.66;6285325;22;20020;-79
2023/09/19 09:44:31;;;;;;;2.80;1.63;;;;;;;20.20;60.14;96720.22;6279088;22;20062;-79
2023/09/19 09:47:27;;;;;;;4.80;2.17;;;;;;;20.16;60.09;96715.41;6296506;22;20034;-79
2023/09/19 09:49:54;;;;;;;7.57;4.88;;;;;;;20.06;59.64;96715.22;6283627;22;20050;-78
2023/09/19 09:52:24;;;;;;;10.98;5.03;;;;;;;19.99;59.86;96706.66;6283240;22;20026;-79
2023/09/19 09:55:05;;;;;;;12.68;5.65;;;;;;;19.95;60.12;96708.97;6283170;22;20020;-80
2023/09/19 09:57:33;;;;;;;8.18;3.67;;;;;;;19.91;60.34;96701.72;6282052;22;20050;-79
2023/09/19 10:00:19;;;;;;;7.07;3.60;;;;;;;19.86;60.04;96701.66;6282063;22;20023;-78
2023/09/19 10:02:47;;;;;;;2.65;1.75;;;;;;;19.85;60.61;96705.31;6281761;22;20020;-78
2023/09/19 10:05:21;;;;;;;4.18;2.03;;;;;;;19.91;60.39;96712.31;6281394;22;20330;-79
2023/09/19 10:07:51;;;;;;;2.83;1.40;;;;;;;20.02;60.44;96715.94;6280497;22;20027;-79
2023/09/19 10:10:38;;;;;;;2.88;1.30;;;;;;;20.14;59.88;96716.69;6280395;22;20538;-78
2023/09/19 10:13:07;;;;;;;4.18;3.08;;;;;;;20.19;59.67;96715.97;6287036;22;20039;-79
2023/09/19 10:15:38;;;;;;;3.40;2.38;;;;;;;20.26;60.46;96721.91;6285144;22;20069;-79
2023/09/19 10:18:08;;;;;;;3.45;1.27;;;;;;;20.32;60.20;96715.66;6286542;22;20103;-79
2023/09/19 10:20:38;;;;;;;3.00;1.23;;;;;;;20.37;60.01;96715.72;6285839;22;20074;-79
2023/09/19 10:23:12;;;;;;;1.95;1.45;;;;;;;20.38;59.91;96717.34;6285486;22;20015;-78
2023/09/19 10:25:42;;;;;;;4.07;1.98;;;;;;;20.43;59.79;96711.31;6287146;22;20074;-79
2023/09/19 10:28:13;;;;;;;2.75;1.65;;;;;;;20.53;60.20;96709.63;6285515;22;20103;-79
2023/09/19 10:30:49;;;;;;;2.33;1.10;;;;;;;20.74;58.76;96707.28;6285421;22;20020;-78
2023/09/19 10:33:17;;;;;;;2.53;1.52;;;;;;;20.96;58.08;96708.13;6285626;22;20016;-79
2023/09/19 10:35:47;;;;;;;2.92;1.20;;;;;;;21.17;57.51;96711.06;6292405;22;20035;-78
2023/09/19 10:38:20;;;;;;;1.70;1.50;;;;;;;21.36;56.94;96707.03;6293507;22;20058;-79
2023/09/19 10:40:51;;;;;;;3.13;1.50;;;;;;;21.60;56.60;96704.13;6286802;22;20085;-79
2023/09/19 10:43:21;;;;;;;2.45;1.60;;;;;;;21.82;57.09;96706.72;6284978;22;20027;-78
2023/09/19 10:45:53;;;;;;;2.00;1.13;;;;;;;22.02;55.09;96698.19;6285456;22;20023;-78
2023/09/19 10:48:25;;;;;;;2.63;0.90;;;;;;;22.21;55.10;96701.25;6291632;22;20024;-79
2023/09/19 10:51:04;;;;;;;5.80;4.60;;;;;;;22.40;53.99;96694.50;6284588;22;20103;-79
2023/09/19 10:53:43;;;;;;;6.47;4.70;;;;;;;22.50;53.47;96704.44;6291532;22;20019;-79
2023/09/19 10:56:17;;;;;;;2.88;1.83;;;;;;;22.47;52.85;96698.81;6284070;22;20023;-79
2023/09/19 10:58:45;;;;;;;1.88;1.63;;;;;;;22.39;52.87;96692.09;6284161;22;20023;-79
2023/09/19 11:01:15;;;;;;;4.28;1.67;;;;;;;22.28;51.81;96695.75;6283622;22;20098;-79
2023/09/19 11:03:44;;;;;;;2.50;1.42;;;;;;;22.19;53.14;96698.03;6283783;22;20022;-79
2023/09/19 11:06:18;;;;;;;2.08;1.35;;;;;;;22.18;51.40;96705.22;6289218;22;20023;-78
2023/09/19 11:08:56;;;;;;;3.97;1.80;;;;;;;22.08;51.49;96701.66;6283787;22;20023;-79
2023/09/19 11:11:57;;;;;;;2.42;1.77;;;;;;;21.95;52.08;96694.91;6283159;22;20023;-78
2023/09/19 11:14:38;;;;;;;6.35;3.45;;;;;;;21.91;51.93;96691.97;6282094;22;20024;-79
2023/09/19 11:17:42;;;;;;;4.63;2.88;;;;;;;21.99;52.71;96704.78;6285501;22;20020;-78
2023/09/19 11:20:51;;;;;;;3.13;1.45;;;;;;;22.07;52.31;96700.06;6283366;22;20085;-79
2023/09/19 11:23:22;;;;;;;2.58;1.15;;;;;;;22.32;52.02;96697.63;6280903;22;20024;-79
2023/09/19 11:25:52;;;;;;;1.55;1.05;;;;;;;22.61;50.87;96690.16;6285818;22;20054;-79
2023/09/19 11:28:38;;;;;;;2.80;0.98;;;;;;;23.01;49.94;96688.00;6282812;22;20114;-79
2023/09/19 11:31:46;;;;;;;2.05;1.20;;;;;;;23.48;48.98;96686.31;6289923;22;20020;-79
2023/09/19 11:34:39;;;;;;;1.77;0.90;;;;;;;23.97;47.12;96678.69;6286575;22;20056;-78
2023/09/19 11:37:41;;;;;;;4.78;1.15;;;;;;;24.22;45.70;96683.22;6301905;22;20030;-78
2023/09/19 11:40:15;;;;;;;1.25;0.82;;;;;;;24.41;44.90;96690.69;6285680;22;20024;-79
2023/09/19 11:42:45;;;;;;;0.60;0.60;;;;;;;24.34;44.17;96687.50;6284151;22;20024;-78
2023/09/19 11:46:02;;;;;;;3.65;1.13;;;;;;;24.32;44.02;96684.31;6283867;22;20332;-79
2023/09/19 11:48:32;;;;;;;0.95;0.60;;;;;;;24.38;42.98;96677.88;6283995;22;20090;-79
2023/09/19 11:51:07;;;;;;;1.52;0.60;;;;;;;24.45;42.95;96676.56;6282379;22;20027;-78
2023/09/19 11:53:36;;;;;;;1.42;0.70;;;;;;;24.65;42.67;96678.41;6289241;22;20465;-79
2023/09/19 11:56:10;;;;;;;1.38;0.60;;;;;;;24.87;41.83;96679.97;6283687;22;20357;-79
2023/09/19 11:58:39;;;;;;;1.95;0.82;;;;;;;25.11;40.68;96669.47;6285032;22;20050;-80
2023/09/19 12:01:13;;;;;;;1.10;0.55;;;;;;;25.28;39.95;96653.94;6292873;22;20069;-80
2023/09/19 12:03:47;;;;;;;1.13;0.82;;;;;;;25.42;38.63;96664.81;6286956;22;20535;-80
2023/09/19 12:06:16;;;;;;;1.35;0.65;;;;;;;25.44;38.86;96652.00;6293252;22;20026;-79
2023/09/19 12:08:46;;;;;;;2.03;0.85;;;;;;;25.32;37.66;96653.38;6292272;22;20456;-81
2023/09/19 12:11:17;;;;;;;1.88;0.93;;;;;;;25.17;37.80;96647.03;6291681;22;20024;-78
2023/09/19 12:13:46;;;;;;;1.10;0.40;;;;;;;25.04;38.60;96653.75;6290524;22;20081;-79
2023/09/19 12:16:16;;;;;;;0.77;0.38;;;;;;;24.92;38.30;96639.91;6286017;22;20019;-80
2023/09/19 12:18:47;;;;;;;0.75;0.60;;;;;;;24.80;39.08;96639.44;6284000;22;20020;-79
2023/09/19 12:21:30;;;;;;;2.25;0.68;;;;;;;24.71;39.22;96633.03;6284101;22;20027;-78
2023/09/19 12:24:11;;;;;;;2.25;0.50;;;;;;;24.64;38.55;96622.66;6283869;22;20049;-79
2023/09/19 12:26:43;;;;;;;1.85;1.17;;;;;;;24.53;39.59;96632.56;6283313;22;20019;-79
2023/09/19 12:29:15;;;;;;;1.90;0.93;;;;;;;24.49;39.56;96636.88;6282711;22;20413;-79
2023/09/19 12:31:51;;;;;;;1.55;0.95;;;;;;;24.46;40.25;96630.16;6283206;22;20028;-79
2023/09/19 12:34:27;;;;;;;6.10;1.75;;;;;;;24.40;39.87;96633.09;6283386;22;20023;-79
2023/09/19 12:37:11;;;;;;;2.33;1.10;;;;;;;24.36;39.96;96626.69;6282484;22;20527;-79
2023/09/19 12:39:41;;;;;;;1.83;0.77;;;;;;;24.35;39.29;96625.13;6286510;22;20058;-78
2023/09/19 12:42:14;;;;;;;0.68;0.57;;;;;;;24.33;39.07;96628.03;6301157;22;20034;-78
2023/09/19 12:44:44;;;;;;;1.40;0.60;;;;;;;24.32;39.51;96623.00;6302071;22;20024;-78
2023/09/19 12:47:22;;;;;;;2.55;0.80;;;;;;;24.30;39.64;96622.47;6291931;22;20023;-79
2023/09/19 12:50:07;;;;;;;1.30;0.70;;;;;;;24.31;39.72;96626.72;6282660;22;20027;-79
2023/09/19 12:52:37;;;;;;;1.52;0.50;;;;;;;24.29;39.77;96616.31;6283008;22;20028;-79
2023/09/19 12:55:06;;;;;;;1.60;0.85;;;;;;;24.29;40.09;96610.19;6283693;22;20023;-78
2023/09/19 12:57:36;;;;;;;2.30;0.80;;;;;;;24.30;39.92;96617.13;6283179;22;20077;-79
2023/09/19 13:00:05;;;;;;;1.98;1.30;;;;;;;24.24;40.11;96619.78;6282322;22;20034;-79